^^
Station Historical Data
Daily Summary for November 21, 2017 Units:  Both    English   Metric
« Previous Day
Next Day »
Daily Weekly Monthly Yearly Custom
  High: Low: Average:
Temperature: TemperatureF °F /  -17.8 °C 67.5 °F /  19.7 °C 75.2 °F /  24 °C
Dew Point: DewpointF °F /  -17.8 °C 28.9 °F /  -1.7 °C 36.3 °F /  2.4 °C
Humidity: Humidity% 17% 25%
Wind Speed: WindSpeedMPHmph /  0km/h - 2mph /  3.2km/h
Wind Gust: WindSpeedGustMPHmph /  0km/h - -
Wind- - WSW
Pressure: PressureIn in /  0 hPa 29.63 in /  1003.3 hPa -
Precipitation: 0.00 in /  0 mm    
Historical Graphs
 
 
Tabular Data for November 21, 2017
Time Temperature Dew Point Pressure Wind Wind Speed Wind Gust Humidity Rainfall Rate (Hourly) solar Conditions
TemperatureF °F /  -17.8 °C DewpointF °F /  -17.8 °C PressureInin /  0hPa Calm     Humidity% HourlyPrecipInin /  0mm SolarRadiationWatts/m^2 W/m2 Conditions
00:01 72.3 °F /  22.4 °C 28.9 °F /  -1.7 °C 30.13in /  1020.2hPa WSW 2.9mph /  4.7km/h 5.0mph /  8km/h 20% 0.00in /  0mm 0.0 W/m2
00:06 72.7 °F /  22.6 °C 29.3 °F /  -1.5 °C 30.13in /  1020.2hPa West 2.0mph /  3.2km/h 5.0mph /  8km/h 20% 0.00in /  0mm 0.0 W/m2
00:11 72.9 °F /  22.7 °C 29.5 °F /  -1.4 °C 30.13in /  1020.2hPa Calm   3.0mph /  4.8km/h 20% 0.00in /  0mm 0.0 W/m2
00:32 72.3 °F /  22.4 °C 30.2 °F /  -1 °C 30.13in /  1020.2hPa Calm   1.0mph /  1.6km/h 21% 0.00in /  0mm 0.0 W/m2
00:38 72.1 °F /  22.3 °C 30.0 °F /  -1.1 °C 30.13in /  1020.2hPa Calm   1.0mph /  1.6km/h 21% 0.00in /  0mm 0.0 W/m2
00:43 72.1 °F /  22.3 °C 31.1 °F /  -0.5 °C 30.13in /  1020.2hPa Calm     22% 0.00in /  0mm 0.0 W/m2
00:48 72.0 °F /  22.2 °C 31.1 °F /  -0.5 °C 30.13in /  1020.2hPa Calm   2.0mph /  3.2km/h 22% 0.00in /  0mm 0.0 W/m2
00:53 72.0 °F /  22.2 °C 31.1 °F /  -0.5 °C 30.12in /  1019.9hPa Calm     22% 0.00in /  0mm 0.0 W/m2
00:59 71.6 °F /  22 °C 31.8 °F /  -0.1 °C 30.12in /  1019.9hPa Calm   2.0mph /  3.2km/h 23% 0.00in /  0mm 0.0 W/m2
01:04 71.6 °F /  22 °C 31.8 °F /  -0.1 °C 30.12in /  1019.9hPa West 0.9mph /  1.4km/h 1.0mph /  1.6km/h 23% 0.00in /  0mm 0.0 W/m2
01:09 71.8 °F /  22.1 °C 32.0 °F /  0 °C 30.12in /  1019.9hPa Calm   2.0mph /  3.2km/h 23% 0.00in /  0mm 0.0 W/m2
01:15 71.8 °F /  22.1 °C 32.0 °F /  0 °C 30.12in /  1019.9hPa NNW 0.9mph /  1.4km/h 3.0mph /  4.8km/h 23% 0.00in /  0mm 0.0 W/m2
01:20 71.8 °F /  22.1 °C 33.1 °F /  0.6 °C 30.11in /  1019.5hPa Calm   1.0mph /  1.6km/h 24% 0.00in /  0mm 0.0 W/m2
01:31 71.4 °F /  21.9 °C 32.7 °F /  0.4 °C 30.11in /  1019.5hPa Calm     24% 0.00in /  0mm 0.0 W/m2
01:36 71.2 °F /  21.8 °C 33.6 °F /  0.9 °C 30.11in /  1019.5hPa Calm     25% 0.00in /  0mm 0.0 W/m2
01:41 71.2 °F /  21.8 °C 33.6 °F /  0.9 °C 30.11in /  1019.5hPa Calm     25% 0.00in /  0mm 0.0 W/m2
01:47 71.1 °F /  21.7 °C 34.5 °F /  1.4 °C 30.11in /  1019.5hPa WNW 0.9mph /  1.4km/h 5.0mph /  8km/h 26% 0.00in /  0mm 0.0 W/m2
01:52 70.9 °F /  21.6 °C 34.3 °F /  1.3 °C 30.11in /  1019.5hPa Calm   1.0mph /  1.6km/h 26% 0.00in /  0mm 0.0 W/m2
01:57 70.9 °F /  21.6 °C 35.2 °F /  1.8 °C 30.11in /  1019.5hPa WSW 2.9mph /  4.7km/h 5.0mph /  8km/h 27% 0.00in /  0mm 0.0 W/m2
02:03 70.5 °F /  21.4 °C 34.9 °F /  1.6 °C 30.10in /  1019.2hPa West 2.0mph /  3.2km/h 3.0mph /  4.8km/h 27% 0.00in /  0mm 0.0 W/m2
02:16 70.3 °F /  21.3 °C 35.6 °F /  2 °C 30.11in /  1019.5hPa West 2.0mph /  3.2km/h 3.0mph /  4.8km/h 28% 0.00in /  0mm 0.0 W/m2
02:23 70.3 °F /  21.3 °C 34.7 °F /  1.5 °C 30.11in /  1019.5hPa WSW 0.9mph /  1.4km/h 3.0mph /  4.8km/h 27% 0.00in /  0mm 0.0 W/m2
02:36 70.2 °F /  21.2 °C 35.6 °F /  2 °C 30.10in /  1019.2hPa SW 0.9mph /  1.4km/h 2.0mph /  3.2km/h 28% 0.00in /  0mm 0.0 W/m2
02:40 70.0 °F /  21.1 °C 36.3 °F /  2.4 °C 30.10in /  1019.2hPa Calm   1.0mph /  1.6km/h 29% 0.00in /  0mm 0.0 W/m2
02:50 69.6 °F /  20.9 °C 36.0 °F /  2.2 °C 30.10in /  1019.2hPa Calm   3.0mph /  4.8km/h 29% 0.00in /  0mm 0.0 W/m2
02:55 69.4 °F /  20.8 °C 35.8 °F /  2.1 °C 30.10in /  1019.2hPa West 4.0mph /  6.4km/h 5.0mph /  8km/h 29% 0.00in /  0mm 0.0 W/m2
02:56 69.4 °F /  20.8 °C 35.8 °F /  2.1 °C 29.67in /  1004.6hPa Calm   5.0mph /  8km/h 29% 0.00in /  0mm 0.0 W/m2
03:00 69.4 °F /  20.8 °C 35.8 °F /  2.1 °C 30.10in /  1019.2hPa Calm   3.0mph /  4.8km/h 29% 0.00in /  0mm 0.0 W/m2
03:05 69.3 °F /  20.7 °C 36.5 °F /  2.5 °C 30.09in /  1018.8hPa Calm     30% 0.00in /  0mm 0.0 W/m2
03:15 69.1 °F /  20.6 °C 36.3 °F /  2.4 °C 30.08in /  1018.5hPa Calm   1.0mph /  1.6km/h 30% 0.00in /  0mm 0.0 W/m2
03:20 69.1 °F /  20.6 °C 36.3 °F /  2.4 °C 30.08in /  1018.5hPa Calm   1.0mph /  1.6km/h 30% 0.00in /  0mm 0.0 W/m2
03:36 69.3 °F /  20.7 °C 35.6 °F /  2 °C 30.09in /  1018.8hPa Calm     29% 0.00in /  0mm 0.0 W/m2
03:47 69.4 °F /  20.8 °C 38.3 °F /  3.5 °C 30.09in /  1018.8hPa Calm   1.0mph /  1.6km/h 32% 0.00in /  0mm 0.0 W/m2
03:52 69.3 °F /  20.7 °C 37.4 °F /  3 °C 30.11in /  1019.5hPa North 4.0mph /  6.4km/h 6.0mph /  9.7km/h 31% 0.00in /  0mm 0.0 W/m2
03:57 69.3 °F /  20.7 °C 37.4 °F /  3 °C 30.11in /  1019.5hPa Calm   2.0mph /  3.2km/h 31% 0.00in /  0mm 0.0 W/m2
04:02 69.1 °F /  20.6 °C 36.3 °F /  2.4 °C 30.12in /  1019.9hPa Calm   3.0mph /  4.8km/h 30% 0.00in /  0mm 0.0 W/m2
04:07 69.1 °F /  20.6 °C 36.3 °F /  2.4 °C 30.12in /  1019.9hPa NE 0.9mph /  1.4km/h 4.0mph /  6.4km/h 30% 0.00in /  0mm 0.0 W/m2
04:22 68.9 °F /  20.5 °C 37.0 °F /  2.8 °C 30.11in /  1019.5hPa NNE 2.0mph /  3.2km/h 3.0mph /  4.8km/h 31% 0.00in /  0mm 0.0 W/m2
04:27 68.7 °F /  20.4 °C 36.0 °F /  2.2 °C 30.11in /  1019.5hPa NNE 0.9mph /  1.4km/h 3.0mph /  4.8km/h 30% 0.00in /  0mm 0.0 W/m2
04:32 68.7 °F /  20.4 °C 36.9 °F /  2.7 °C 30.11in /  1019.5hPa Calm   1.0mph /  1.6km/h 31% 0.00in /  0mm 0.0 W/m2
04:37 68.7 °F /  20.4 °C 36.9 °F /  2.7 °C 30.11in /  1019.5hPa Calm     31% 0.00in /  0mm 0.0 W/m2
04:48 68.5 °F /  20.3 °C 36.7 °F /  2.6 °C 30.13in /  1020.2hPa Calm   4.0mph /  6.4km/h 31% 0.00in /  0mm 0.0 W/m2
04:53 68.5 °F /  20.3 °C 36.7 °F /  2.6 °C 30.12in /  1019.9hPa Calm   2.0mph /  3.2km/h 31% 0.00in /  0mm 0.0 W/m2
05:03 68.5 °F /  20.3 °C 36.7 °F /  2.6 °C 30.12in /  1019.9hPa Calm   1.0mph /  1.6km/h 31% 0.00in /  0mm 0.0 W/m2
05:09 68.5 °F /  20.3 °C 36.7 °F /  2.6 °C 30.12in /  1019.9hPa Calm   1.0mph /  1.6km/h 31% 0.00in /  0mm 0.0 W/m2
05:11 68.5 °F /  20.3 °C 36.7 °F /  2.6 °C 30.11in /  1019.5hPa Calm   1.0mph /  1.6km/h 31% 0.00in /  0mm 0.0 W/m2
05:17 68.5 °F /  20.3 °C 36.0 °F /  2.2 °C 30.11in /  1019.5hPa Calm   3.0mph /  4.8km/h 30% 0.00in /  0mm 0.0 W/m2
05:22 68.5 °F /  20.3 °C 36.0 °F /  2.2 °C 30.11in /  1019.5hPa Calm     30% 0.00in /  0mm 0.0 W/m2
05:28 68.5 °F /  20.3 °C 36.7 °F /  2.6 °C 30.12in /  1019.9hPa Calm   1.0mph /  1.6km/h 31% 0.00in /  0mm 0.0 W/m2
05:31 68.5 °F /  20.3 °C 36.7 °F /  2.6 °C 30.12in /  1019.9hPa Calm     31% 0.00in /  0mm 0.0 W/m2
05:36 68.4 °F /  20.2 °C 36.5 °F /  2.5 °C 30.11in /  1019.5hPa Calm     31% 0.00in /  0mm 0.0 W/m2
05:42 68.4 °F /  20.2 °C 36.5 °F /  2.5 °C 30.11in /  1019.5hPa Calm   1.0mph /  1.6km/h 31% 0.00in /  0mm 0.0 W/m2
05:43 68.4 °F /  20.2 °C 36.5 °F /  2.5 °C 30.12in /  1019.9hPa Calm     31% 0.00in /  0mm 0.0 W/m2
05:53 68.2 °F /  20.1 °C 37.2 °F /  2.9 °C 30.11in /  1019.5hPa Calm     32% 0.00in /  0mm 0.0 W/m2
05:58 68.0 °F /  20 °C 37.8 °F /  3.2 °C 30.11in /  1019.5hPa Calm     33% 0.00in /  0mm 0.0 W/m2
06:03 67.8 °F /  19.9 °C 37.6 °F /  3.1 °C 30.12in /  1019.9hPa Calm   1.0mph /  1.6km/h 33% 0.00in /  0mm 0.0 W/m2
06:08 67.8 °F /  19.9 °C 37.6 °F /  3.1 °C 30.13in /  1020.2hPa Calm     33% 0.00in /  0mm 0.0 W/m2
06:13 67.6 °F /  19.8 °C 37.6 °F /  3.1 °C 30.13in /  1020.2hPa Calm   1.0mph /  1.6km/h 33% 0.00in /  0mm 5.0 W/m2
06:24 67.6 °F /  19.8 °C 38.3 °F /  3.5 °C 29.70in /  1005.6hPa Calm   1.0mph /  1.6km/h 34% 0.00in /  0mm 21.0 W/m2
06:29 67.6 °F /  19.8 °C 38.3 °F /  3.5 °C 30.13in /  1020.2hPa WSW 0.9mph /  1.4km/h 2.0mph /  3.2km/h 34% 0.00in /  0mm 30.0 W/m2
06:35 67.5 °F /  19.7 °C 37.4 °F /  3 °C 30.13in /  1020.2hPa NW 2.0mph /  3.2km/h 4.0mph /  6.4km/h 33% 0.00in /  0mm 37.0 W/m2
06:40 67.6 °F /  19.8 °C 38.3 °F /  3.5 °C 29.70in /  1005.6hPa Calm     34% 0.00in /  0mm 62.0 W/m2
06:45 67.6 °F /  19.8 °C 38.3 °F /  3.5 °C 30.14in /  1020.5hPa Calm   1.0mph /  1.6km/h 34% 0.00in /  0mm 72.0 W/m2
06:51 67.8 °F /  19.9 °C 37.6 °F /  3.1 °C 30.13in /  1020.2hPa Calm   3.0mph /  4.8km/h 33% 0.00in /  0mm 56.0 W/m2
06:56 68.0 °F /  20 °C 37.8 °F /  3.2 °C 30.14in /  1020.5hPa Calm   2.0mph /  3.2km/h 33% 0.00in /  0mm 72.0 W/m2
07:01 68.2 °F /  20.1 °C 38.7 °F /  3.7 °C 30.14in /  1020.5hPa Calm   3.0mph /  4.8km/h 34% 0.00in /  0mm 67.0 W/m2
07:06 68.4 °F /  20.2 °C 38.8 °F /  3.8 °C 30.14in /  1020.5hPa Calm   1.0mph /  1.6km/h 34% 0.00in /  0mm 58.0 W/m2
07:11 68.4 °F /  20.2 °C 37.4 °F /  3 °C 30.14in /  1020.5hPa SW 0.9mph /  1.4km/h 2.0mph /  3.2km/h 32% 0.00in /  0mm 60.0 W/m2
07:17 68.5 °F /  20.3 °C 38.3 °F /  3.5 °C 30.14in /  1020.5hPa Calm   3.0mph /  4.8km/h 33% 0.00in /  0mm 70.0 W/m2
07:22 68.7 °F /  20.4 °C 38.5 °F /  3.6 °C 30.13in /  1020.2hPa South 2.9mph /  4.7km/h 4.0mph /  6.4km/h 33% 0.00in /  0mm 69.0 W/m2
07:32 69.1 °F /  20.6 °C 37.9 °F /  3.3 °C 30.13in /  1020.2hPa Calm   1.0mph /  1.6km/h 32% 0.00in /  0mm 269.0 W/m2
07:37 69.4 °F /  20.8 °C 37.4 °F /  3 °C 30.14in /  1020.5hPa Calm   1.0mph /  1.6km/h 31% 0.00in /  0mm 322.0 W/m2
07:42 70.0 °F /  21.1 °C 37.0 °F /  2.8 °C 30.14in /  1020.5hPa Calm   1.0mph /  1.6km/h 30% 0.00in /  0mm 336.0 W/m2
07:47 71.1 °F /  21.7 °C 38.1 °F /  3.4 °C 30.14in /  1020.5hPa NNW 2.0mph /  3.2km/h 4.0mph /  6.4km/h 30% 0.00in /  0mm 359.0 W/m2
07:52 72.1 °F /  22.3 °C 38.1 °F /  3.4 °C 30.14in /  1020.5hPa NNE 0.9mph /  1.4km/h 4.0mph /  6.4km/h 29% 0.00in /  0mm 373.0 W/m2
07:57 73.0 °F /  22.8 °C 37.9 °F /  3.3 °C 30.14in /  1020.5hPa North 0.9mph /  1.4km/h 2.0mph /  3.2km/h 28% 0.00in /  0mm 397.0 W/m2
08:13 75.0 °F /  23.9 °C 37.8 °F /  3.2 °C 30.14in /  1020.5hPa NNW 2.0mph /  3.2km/h 3.0mph /  4.8km/h 26% 0.00in /  0mm 497.0 W/m2
08:18 75.7 °F /  24.3 °C 36.3 °F /  2.4 °C 30.14in /  1020.5hPa Calm   1.0mph /  1.6km/h 24% 0.00in /  0mm 540.0 W/m2
08:23 75.9 °F /  24.4 °C 37.6 °F /  3.1 °C 29.71in /  1006hPa South 2.0mph /  3.2km/h 3.0mph /  4.8km/h 25% 0.00in /  0mm 599.0 W/m2
08:33 76.3 °F /  24.6 °C 36.9 °F /  2.7 °C 30.14in /  1020.5hPa WSW 2.0mph /  3.2km/h 5.0mph /  8km/h 24% 0.00in /  0mm 680.0 W/m2
08:38 75.9 °F /  24.4 °C 37.6 °F /  3.1 °C 30.14in /  1020.5hPa Calm   6.0mph /  9.7km/h 25% 0.00in /  0mm 555.0 W/m2
08:43 75.9 °F /  24.4 °C 37.6 °F /  3.1 °C 30.13in /  1020.2hPa SSW 4.0mph /  6.4km/h 4.0mph /  6.4km/h 25% 0.00in /  0mm 629.0 W/m2
08:48 75.7 °F /  24.3 °C 38.5 °F /  3.6 °C 30.14in /  1020.5hPa West 2.0mph /  3.2km/h 6.0mph /  9.7km/h 26% 0.00in /  0mm 243.0 W/m2
08:59 75.9 °F /  24.4 °C 36.5 °F /  2.5 °C 30.13in /  1020.2hPa WNW 2.0mph /  3.2km/h 6.0mph /  9.7km/h 24% 0.00in /  0mm 621.0 W/m2
09:05 76.6 °F /  24.8 °C 37.2 °F /  2.9 °C 30.13in /  1020.2hPa Calm   2.0mph /  3.2km/h 24% 0.00in /  0mm 663.0 W/m2
09:10 77.2 °F /  25.1 °C 37.6 °F /  3.1 °C 30.13in /  1020.2hPa Calm   4.0mph /  6.4km/h 24% 0.00in /  0mm 666.0 W/m2
09:15 77.2 °F /  25.1 °C 38.7 °F /  3.7 °C 30.13in /  1020.2hPa West 2.9mph /  4.7km/h 5.0mph /  8km/h 25% 0.00in /  0mm 708.0 W/m2
09:20 77.5 °F /  25.3 °C 39.0 °F /  3.9 °C 30.13in /  1020.2hPa Calm   2.0mph /  3.2km/h 25% 0.00in /  0mm 701.0 W/m2
09:25 78.4 °F /  25.8 °C 38.7 °F /  3.7 °C 30.13in /  1020.2hPa NW 0.9mph /  1.4km/h 3.0mph /  4.8km/h 24% 0.00in /  0mm 721.0 W/m2
09:30 79.0 °F /  26.1 °C 40.1 °F /  4.5 °C 30.13in /  1020.2hPa WSW 0.9mph /  1.4km/h 1.0mph /  1.6km/h 25% 0.00in /  0mm 749.0 W/m2
09:35 79.2 °F /  26.2 °C 38.1 °F /  3.4 °C 30.13in /  1020.2hPa WSW 0.9mph /  1.4km/h 7.0mph /  11.3km/h 23% 0.00in /  0mm 805.0 W/m2
09:40 79.2 °F /  26.2 °C 38.1 °F /  3.4 °C 30.13in /  1020.2hPa Calm   3.0mph /  4.8km/h 23% 0.00in /  0mm 647.0 W/m2
09:51 79.5 °F /  26.4 °C 38.5 °F /  3.6 °C 30.13in /  1020.2hPa Calm   4.0mph /  6.4km/h 23% 0.00in /  0mm 287.0 W/m2
09:56 80.1 °F /  26.7 °C 38.8 °F /  3.8 °C 30.13in /  1020.2hPa SW 2.0mph /  3.2km/h 4.0mph /  6.4km/h 23% 0.00in /  0mm 838.0 W/m2
10:01 80.1 °F /  26.7 °C 38.8 °F /  3.8 °C 30.13in /  1020.2hPa South 2.9mph /  4.7km/h 7.0mph /  11.3km/h 23% 0.00in /  0mm 889.0 W/m2
10:11 81.0 °F /  27.2 °C 38.5 °F /  3.6 °C 30.13in /  1020.2hPa Calm   1.0mph /  1.6km/h 22% 0.00in /  0mm 849.0 W/m2
10:16 81.5 °F /  27.5 °C 39.0 °F /  3.9 °C 30.13in /  1020.2hPa WSW 2.9mph /  4.7km/h 8.0mph /  12.9km/h 22% 0.00in /  0mm 856.0 W/m2
10:22 81.1 °F /  27.3 °C 39.7 °F /  4.3 °C 30.13in /  1020.2hPa WSW 2.0mph /  3.2km/h 4.0mph /  6.4km/h 23% 0.00in /  0mm 870.0 W/m2
10:27 81.3 °F /  27.4 °C 39.9 °F /  4.4 °C 30.13in /  1020.2hPa SSW 6.9mph /  11.1km/h 7.0mph /  11.3km/h 23% 0.00in /  0mm 886.0 W/m2
10:32 81.5 °F /  27.5 °C 40.1 °F /  4.5 °C 30.13in /  1020.2hPa Calm   5.0mph /  8km/h 23% 0.00in /  0mm 909.0 W/m2
10:43 82.2 °F /  27.9 °C 39.6 °F /  4.2 °C 30.13in /  1020.2hPa South 2.0mph /  3.2km/h 6.0mph /  9.7km/h 22% 0.00in /  0mm 1018.0 W/m2
11:08 82.6 °F /  28.1 °C 39.9 °F /  4.4 °C 30.13in /  1020.2hPa SW 2.0mph /  3.2km/h 2.0mph /  3.2km/h 22% 0.00in /  0mm 501.0 W/m2
11:13 82.8 °F /  28.2 °C 40.1 °F /  4.5 °C 30.13in /  1020.2hPa SSW 2.0mph /  3.2km/h 6.0mph /  9.7km/h 22% 0.00in /  0mm 503.0 W/m2
11:18 82.6 °F /  28.1 °C 39.9 °F /  4.4 °C 30.13in /  1020.2hPa West 0.9mph /  1.4km/h 5.0mph /  8km/h 22% 0.00in /  0mm 714.0 W/m2
11:24 82.8 °F /  28.2 °C 40.1 °F /  4.5 °C 30.13in /  1020.2hPa WSW 4.9mph /  7.9km/h 6.0mph /  9.7km/h 22% 0.00in /  0mm 800.0 W/m2
11:30 82.8 °F /  28.2 °C 38.8 °F /  3.8 °C 30.13in /  1020.2hPa WSW 4.9mph /  7.9km/h 9.0mph /  14.5km/h 21% 0.00in /  0mm 664.0 W/m2
11:40 83.5 °F /  28.6 °C 39.4 °F /  4.1 °C 30.13in /  1020.2hPa Calm   6.0mph /  9.7km/h 21% 0.00in /  0mm 490.0 W/m2
11:45 83.8 °F /  28.8 °C 39.7 °F /  4.3 °C 30.13in /  1020.2hPa North 2.9mph /  4.7km/h 4.0mph /  6.4km/h 21% 0.00in /  0mm 466.0 W/m2
11:50 83.5 °F /  28.6 °C 38.1 °F /  3.4 °C 30.13in /  1020.2hPa Calm   2.0mph /  3.2km/h 20% 0.00in /  0mm 468.0 W/m2
12:12 82.4 °F /  28 °C 39.7 °F /  4.3 °C 30.12in /  1019.9hPa West 0.9mph /  1.4km/h 9.0mph /  14.5km/h 22% 0.00in /  0mm 557.0 W/m2
12:17 82.6 °F /  28.1 °C 41.0 °F /  5 °C 30.12in /  1019.9hPa WNW 4.0mph /  6.4km/h 6.0mph /  9.7km/h 23% 0.00in /  0mm 550.0 W/m2
12:22 83.3 °F /  28.5 °C 40.5 °F /  4.7 °C 29.69in /  1005.3hPa NNW 0.9mph /  1.4km/h 10.0mph /  16.1km/h 22% 0.00in /  0mm 949.0 W/m2
12:32 83.8 °F /  28.8 °C 39.7 °F /  4.3 °C 29.69in /  1005.3hPa NNW 6.0mph /  9.7km/h 8.0mph /  12.9km/h 21% 0.00in /  0mm 406.0 W/m2
12:43 83.5 °F /  28.6 °C 39.4 °F /  4.1 °C 30.12in /  1019.9hPa West 4.9mph /  7.9km/h 5.0mph /  8km/h 21% 0.00in /  0mm 1252.0 W/m2
12:48 83.8 °F /  28.8 °C 39.7 °F /  4.3 °C 30.12in /  1019.9hPa West 11.0mph /  17.7km/h 14.0mph /  22.5km/h 21% 0.00in /  0mm 1086.0 W/m2
12:53 83.5 °F /  28.6 °C 40.6 °F /  4.8 °C 29.68in /  1005hPa SSW 2.9mph /  4.7km/h 5.0mph /  8km/h 22% 0.00in /  0mm 758.0 W/m2
12:59 83.8 °F /  28.8 °C 39.7 °F /  4.3 °C 30.11in /  1019.5hPa SW 6.0mph /  9.7km/h 16.0mph /  25.7km/h 21% 0.00in /  0mm 1086.0 W/m2
13:04 84.0 °F /  28.9 °C 39.9 °F /  4.4 °C 29.68in /  1005hPa WSW 2.9mph /  4.7km/h 9.0mph /  14.5km/h 21% 0.00in /  0mm 1155.0 W/m2
13:14 83.7 °F /  28.7 °C 39.6 °F /  4.2 °C 30.10in /  1019.2hPa SW 2.0mph /  3.2km/h 7.0mph /  11.3km/h 21% 0.00in /  0mm 485.0 W/m2
13:24 84.0 °F /  28.9 °C 38.7 °F /  3.7 °C 30.10in /  1019.2hPa North 0.9mph /  1.4km/h 7.0mph /  11.3km/h 20% 0.00in /  0mm 1063.0 W/m2
13:29 85.3 °F /  29.6 °C 39.7 °F /  4.3 °C 30.10in /  1019.2hPa NW 2.0mph /  3.2km/h 7.0mph /  11.3km/h 20% 0.00in /  0mm 1056.0 W/m2
13:39 87.1 °F /  30.6 °C 39.7 °F /  4.3 °C 30.09in /  1018.8hPa WNW 4.0mph /  6.4km/h 5.0mph /  8km/h 19% 0.00in /  0mm 1020.0 W/m2
13:50 87.4 °F /  30.8 °C 40.1 °F /  4.5 °C 30.09in /  1018.8hPa WSW 0.9mph /  1.4km/h 9.0mph /  14.5km/h 19% 0.00in /  0mm 1021.0 W/m2
14:00 87.1 °F /  30.6 °C 39.7 °F /  4.3 °C 30.08in /  1018.5hPa Calm   4.0mph /  6.4km/h 19% 0.00in /  0mm 983.0 W/m2
14:05 86.7 °F /  30.4 °C 39.6 °F /  4.2 °C 30.08in /  1018.5hPa Calm   5.0mph /  8km/h 19% 0.00in /  0mm 986.0 W/m2
14:10 86.7 °F /  30.4 °C 39.6 °F /  4.2 °C 30.08in /  1018.5hPa WSW 6.9mph /  11.1km/h 9.0mph /  14.5km/h 19% 0.00in /  0mm 981.0 W/m2
14:15 86.5 °F /  30.3 °C 39.4 °F /  4.1 °C 30.08in /  1018.5hPa WSW 4.9mph /  7.9km/h 11.0mph /  17.7km/h 19% 0.00in /  0mm 965.0 W/m2
14:20 86.5 °F /  30.3 °C 39.4 °F /  4.1 °C 30.08in /  1018.5hPa East 2.0mph /  3.2km/h 8.0mph /  12.9km/h 19% 0.00in /  0mm 954.0 W/m2
14:26 86.4 °F /  30.2 °C 39.2 °F /  4 °C 30.08in /  1018.5hPa WSW 6.9mph /  11.1km/h 11.0mph /  17.7km/h 19% 0.00in /  0mm 951.0 W/m2
14:31 86.2 °F /  30.1 °C 39.0 °F /  3.9 °C 30.08in /  1018.5hPa WSW 4.0mph /  6.4km/h 9.0mph /  14.5km/h 19% 0.00in /  0mm 954.0 W/m2
14:36 86.7 °F /  30.4 °C 39.6 °F /  4.2 °C 30.08in /  1018.5hPa West 2.0mph /  3.2km/h 6.0mph /  9.7km/h 19% 0.00in /  0mm 990.0 W/m2
14:46 87.1 °F /  30.6 °C 38.5 °F /  3.6 °C 30.07in /  1018.2hPa NNW 4.0mph /  6.4km/h 5.0mph /  8km/h 18% 0.00in /  0mm 1013.0 W/m2
14:51 86.7 °F /  30.4 °C 38.1 °F /  3.4 °C 30.07in /  1018.2hPa SE 4.0mph /  6.4km/h 7.0mph /  11.3km/h 18% 0.00in /  0mm 988.0 W/m2
14:56 86.7 °F /  30.4 °C 39.6 °F /  4.2 °C 30.07in /  1018.2hPa Calm   6.0mph /  9.7km/h 19% 0.00in /  0mm 991.0 W/m2
15:06 87.1 °F /  30.6 °C 38.5 °F /  3.6 °C 30.07in /  1018.2hPa West 8.9mph /  14.3km/h 9.0mph /  14.5km/h 18% 0.00in /  0mm 926.0 W/m2
15:17 88.3 °F /  31.3 °C 37.9 °F /  3.3 °C 30.07in /  1018.2hPa West 2.9mph /  4.7km/h 10.0mph /  16.1km/h 17% 0.00in /  0mm 960.0 W/m2
15:22 88.5 °F /  31.4 °C 38.1 °F /  3.4 °C 30.07in /  1018.2hPa NW 0.9mph /  1.4km/h 6.0mph /  9.7km/h 17% 0.00in /  0mm 919.0 W/m2
15:32 88.0 °F /  31.1 °C 37.8 °F /  3.2 °C 30.07in /  1018.2hPa WSW 4.9mph /  7.9km/h 7.0mph /  11.3km/h 17% 0.00in /  0mm 893.0 W/m2
15:37 87.6 °F /  30.9 °C 37.4 °F /  3 °C 30.06in /  1017.8hPa SW 4.9mph /  7.9km/h 11.0mph /  17.7km/h 17% 0.00in /  0mm 879.0 W/m2
15:47 88.3 °F /  31.3 °C 37.9 °F /  3.3 °C 30.07in /  1018.2hPa NW 2.0mph /  3.2km/h 10.0mph /  16.1km/h 17% 0.00in /  0mm 768.0 W/m2
15:52 87.8 °F /  31 °C 37.6 °F /  3.1 °C 30.06in /  1017.8hPa WNW 2.0mph /  3.2km/h 5.0mph /  8km/h 17% 0.00in /  0mm 209.0 W/m2
15:58 87.3 °F /  30.7 °C 37.2 °F /  2.9 °C 30.06in /  1017.8hPa WSW 8.9mph /  14.3km/h 11.0mph /  17.7km/h 17% 0.00in /  0mm 262.0 W/m2
16:03 87.1 °F /  30.6 °C 37.0 °F /  2.8 °C 30.06in /  1017.8hPa WNW 0.9mph /  1.4km/h 4.0mph /  6.4km/h 17% 0.00in /  0mm 786.0 W/m2
16:29 85.8 °F /  29.9 °C 37.4 °F /  3 °C 30.06in /  1017.8hPa West 2.9mph /  4.7km/h 7.0mph /  11.3km/h 18% 0.00in /  0mm 636.0 W/m2
16:34 86.4 °F /  30.2 °C 37.9 °F /  3.3 °C 30.05in /  1017.5hPa WSW 8.1mph /  13km/h 8.1mph /  13km/h 18% 0.00in /  0mm 580.0 W/m2
16:40 86.7 °F /  30.4 °C 38.1 °F /  3.4 °C 30.05in /  1017.5hPa South 6.0mph /  9.7km/h 15.0mph /  24.1km/h 18% 0.00in /  0mm 570.0 W/m2
16:45 86.7 °F /  30.4 °C 38.1 °F /  3.4 °C 30.05in /  1017.5hPa NNW 2.0mph /  3.2km/h 14.0mph /  22.5km/h 18% 0.00in /  0mm 534.0 W/m2
16:50 86.9 °F /  30.5 °C 38.3 °F /  3.5 °C 30.05in /  1017.5hPa WSW 10.1mph /  16.3km/h 15.0mph /  24.1km/h 18% 0.00in /  0mm 494.0 W/m2
17:15 84.7 °F /  29.3 °C 37.9 °F /  3.3 °C 30.06in /  1017.8hPa SW 6.9mph /  11.1km/h 9.0mph /  14.5km/h 19% 0.00in /  0mm 399.0 W/m2
17:26 83.7 °F /  28.7 °C 37.0 °F /  2.8 °C 30.06in /  1017.8hPa WSW 4.9mph /  7.9km/h 13.0mph /  20.9km/h 19% 0.00in /  0mm 352.0 W/m2
17:31 83.7 °F /  28.7 °C 38.3 °F /  3.5 °C 29.63in /  1003.3hPa SW 2.9mph /  4.7km/h 6.0mph /  9.7km/h 20% 0.00in /  0mm 334.0 W/m2
17:36 83.8 °F /  28.8 °C 38.5 °F /  3.6 °C 30.06in /  1017.8hPa Calm   6.0mph /  9.7km/h 20% 0.00in /  0mm 315.0 W/m2
17:41 83.5 °F /  28.6 °C 38.1 °F /  3.4 °C 30.06in /  1017.8hPa West 4.9mph /  7.9km/h 14.0mph /  22.5km/h 20% 0.00in /  0mm 294.0 W/m2
17:46 83.3 °F /  28.5 °C 38.1 °F /  3.4 °C 30.07in /  1018.2hPa WSW 4.0mph /  6.4km/h 14.0mph /  22.5km/h 20% 0.00in /  0mm 274.0 W/m2
17:56 82.9 °F /  28.3 °C 39.0 °F /  3.9 °C 30.07in /  1018.2hPa West 11.0mph /  17.7km/h 13.0mph /  20.9km/h 21% 0.00in /  0mm 234.0 W/m2
18:01 82.6 °F /  28.1 °C 38.7 °F /  3.7 °C 30.07in /  1018.2hPa WSW 0.9mph /  1.4km/h 12.0mph /  19.3km/h 21% 0.00in /  0mm 214.0 W/m2
18:07 82.4 °F /  28 °C 39.7 °F /  4.3 °C 30.07in /  1018.2hPa WSW 4.9mph /  7.9km/h 11.0mph /  17.7km/h 22% 0.00in /  0mm 195.0 W/m2
18:12 82.0 °F /  27.8 °C 39.4 °F /  4.1 °C 30.08in /  1018.5hPa West 6.0mph /  9.7km/h 8.0mph /  12.9km/h 22% 0.00in /  0mm 120.0 W/m2
18:27 80.1 °F /  26.7 °C 37.8 °F /  3.2 °C 30.09in /  1018.8hPa SSW 6.9mph /  11.1km/h 13.0mph /  20.9km/h 22% 0.00in /  0mm 37.0 W/m2
18:30 79.7 °F /  26.5 °C 38.7 °F /  3.7 °C 30.09in /  1018.8hPa WSW 10.1mph /  16.3km/h 17.0mph /  27.4km/h 23% 0.00in /  0mm 37.0 W/m2
18:35 79.2 °F /  26.2 °C 38.1 °F /  3.4 °C 30.09in /  1018.8hPa WSW 11.0mph /  17.7km/h 14.0mph /  22.5km/h 23% 0.00in /  0mm 32.0 W/m2
18:43 78.4 °F /  25.8 °C 37.6 °F /  3.1 °C 30.10in /  1019.2hPa WSW 2.9mph /  4.7km/h 13.0mph /  20.9km/h 23% 0.00in /  0mm 26.0 W/m2
18:48 78.1 °F /  25.6 °C 37.2 °F /  2.9 °C 30.10in /  1019.2hPa WNW 8.1mph /  13km/h 17.0mph /  27.4km/h 23% 0.00in /  0mm 21.0 W/m2
18:54 77.5 °F /  25.3 °C 36.9 °F /  2.7 °C 30.10in /  1019.2hPa West 6.9mph /  11.1km/h 13.0mph /  20.9km/h 23% 0.00in /  0mm 18.0 W/m2
19:00 77.2 °F /  25.1 °C 37.6 °F /  3.1 °C 30.11in /  1019.5hPa WSW 4.9mph /  7.9km/h 10.0mph /  16.1km/h 24% 0.00in /  0mm 14.0 W/m2
19:05 76.8 °F /  24.9 °C 37.2 °F /  2.9 °C 30.11in /  1019.5hPa West 6.0mph /  9.7km/h 11.0mph /  17.7km/h 24% 0.00in /  0mm 11.0 W/m2
19:10 76.6 °F /  24.8 °C 37.2 °F /  2.9 °C 30.11in /  1019.5hPa WSW 4.9mph /  7.9km/h 7.0mph /  11.3km/h 24% 0.00in /  0mm 7.0 W/m2
19:15 76.5 °F /  24.7 °C 37.0 °F /  2.8 °C 30.11in /  1019.5hPa South 4.0mph /  6.4km/h 9.0mph /  14.5km/h 24% 0.00in /  0mm 0.0 W/m2
19:20 75.9 °F /  24.4 °C 37.6 °F /  3.1 °C 30.12in /  1019.9hPa West 6.0mph /  9.7km/h 9.0mph /  14.5km/h 25% 0.00in /  0mm 0.0 W/m2
19:25 75.6 °F /  24.2 °C 37.2 °F /  2.9 °C 30.12in /  1019.9hPa SW 4.9mph /  7.9km/h 10.0mph /  16.1km/h 25% 0.00in /  0mm 0.0 W/m2
19:30 75.4 °F /  24.1 °C 37.0 °F /  2.8 °C 30.13in /  1020.2hPa WSW 4.0mph /  6.4km/h 9.0mph /  14.5km/h 25% 0.00in /  0mm 0.0 W/m2
19:35 75.0 °F /  23.9 °C 36.9 °F /  2.7 °C 30.13in /  1020.2hPa Calm   9.0mph /  14.5km/h 25% 0.00in /  0mm 0.0 W/m2
19:45 74.5 °F /  23.6 °C 36.3 °F /  2.4 °C 30.14in /  1020.5hPa WSW 4.0mph /  6.4km/h 8.0mph /  12.9km/h 25% 0.00in /  0mm 0.0 W/m2
19:56 73.8 °F /  23.2 °C 36.7 °F /  2.6 °C 30.14in /  1020.5hPa West 6.0mph /  9.7km/h 7.0mph /  11.3km/h 26% 0.00in /  0mm 0.0 W/m2
20:01 73.6 °F /  23.1 °C 36.5 °F /  2.5 °C 30.14in /  1020.5hPa West 6.0mph /  9.7km/h 6.0mph /  9.7km/h 26% 0.00in /  0mm 0.0 W/m2
20:12 73.2 °F /  22.9 °C 37.2 °F /  2.9 °C 30.14in /  1020.5hPa West 0.9mph /  1.4km/h 5.0mph /  8km/h 27% 0.00in /  0mm 0.0 W/m2
20:17 73.0 °F /  22.8 °C 37.9 °F /  3.3 °C 30.15in /  1020.9hPa WSW 4.0mph /  6.4km/h 8.0mph /  12.9km/h 28% 0.00in /  0mm 0.0 W/m2
20:22 72.9 °F /  22.7 °C 37.8 °F /  3.2 °C 30.15in /  1020.9hPa West 2.0mph /  3.2km/h 6.0mph /  9.7km/h 28% 0.00in /  0mm 0.0 W/m2
20:32 72.3 °F /  22.4 °C 36.5 °F /  2.5 °C 30.15in /  1020.9hPa West 4.9mph /  7.9km/h 9.0mph /  14.5km/h 27% 0.00in /  0mm 0.0 W/m2
20:38 72.1 °F /  22.3 °C 35.4 °F /  1.9 °C 30.15in /  1020.9hPa SW 6.0mph /  9.7km/h 12.0mph /  19.3km/h 26% 0.00in /  0mm 0.0 W/m2
20:43 72.0 °F /  22.2 °C 35.2 °F /  1.8 °C 30.15in /  1020.9hPa SW 2.0mph /  3.2km/h 5.0mph /  8km/h 26% 0.00in /  0mm 0.0 W/m2
20:48 72.0 °F /  22.2 °C 34.2 °F /  1.2 °C 30.16in /  1021.2hPa WSW 0.9mph /  1.4km/h 9.0mph /  14.5km/h 25% 0.00in /  0mm 0.0 W/m2
20:53 71.8 °F /  22.1 °C 34.0 °F /  1.1 °C 30.16in /  1021.2hPa SSW 2.9mph /  4.7km/h 7.0mph /  11.3km/h 25% 0.00in /  0mm 0.0 W/m2
20:58 71.6 °F /  22 °C 32.9 °F /  0.5 °C 30.16in /  1021.2hPa WSW 2.0mph /  3.2km/h 8.0mph /  12.9km/h 24% 0.00in /  0mm 0.0 W/m2
21:03 71.4 °F /  21.9 °C 32.7 °F /  0.4 °C 30.16in /  1021.2hPa SSW 0.9mph /  1.4km/h 4.0mph /  6.4km/h 24% 0.00in /  0mm 0.0 W/m2
21:08 71.2 °F /  21.8 °C 32.5 °F /  0.3 °C 29.73in /  1006.7hPa SW 0.9mph /  1.4km/h 2.0mph /  3.2km/h 24% 0.00in /  0mm 0.0 W/m2
21:18 71.1 °F /  21.7 °C 31.5 °F /  -0.3 °C 29.74in /  1007hPa SW 2.9mph /  4.7km/h 5.0mph /  8km/h 23% 0.00in /  0mm 0.0 W/m2
21:24 70.9 °F /  21.6 °C 31.3 °F /  -0.4 °C 30.17in /  1021.6hPa SW 2.0mph /  3.2km/h 6.0mph /  9.7km/h 23% 0.00in /  0mm 0.0 W/m2
21:34 70.5 °F /  21.4 °C 30.9 °F /  -0.6 °C 30.18in /  1021.9hPa Calm   3.0mph /  4.8km/h 23% 0.00in /  0mm 0.0 W/m2
21:44 70.3 °F /  21.3 °C 30.7 °F /  -0.7 °C 30.18in /  1021.9hPa Calm   3.0mph /  4.8km/h 23% 0.00in /  0mm 0.0 W/m2
22:04 70.2 °F /  21.2 °C 32.7 °F /  0.4 °C 30.18in /  1021.9hPa Calm   1.0mph /  1.6km/h 25% 0.00in /  0mm 0.0 W/m2
22:10 70.0 °F /  21.1 °C 32.5 °F /  0.3 °C 30.18in /  1021.9hPa West 0.9mph /  1.4km/h 3.0mph /  4.8km/h 25% 0.00in /  0mm 0.0 W/m2
22:15 70.0 °F /  21.1 °C 31.5 °F /  -0.3 °C 30.19in /  1022.2hPa West 2.0mph /  3.2km/h 2.0mph /  3.2km/h 24% 0.00in /  0mm 0.0 W/m2
22:20 69.6 °F /  20.9 °C 32.2 °F /  0.1 °C 30.19in /  1022.2hPa Calm   2.0mph /  3.2km/h 25% 0.00in /  0mm 0.0 W/m2
22:26 69.4 °F /  20.8 °C 32.0 °F /  0 °C 29.77in /  1008hPa Calm   1.0mph /  1.6km/h 25% 0.00in /  0mm 0.0 W/m2
22:31 69.4 °F /  20.8 °C 32.0 °F /  0 °C 30.20in /  1022.6hPa Calm   1.0mph /  1.6km/h 25% 0.00in /  0mm 0.0 W/m2
22:36 69.3 °F /  20.7 °C 30.9 °F /  -0.6 °C 30.20in /  1022.6hPa NW 0.9mph /  1.4km/h 1.0mph /  1.6km/h 24% 0.00in /  0mm 0.0 W/m2
22:41 69.1 °F /  20.6 °C 30.7 °F /  -0.7 °C 30.20in /  1022.6hPa Calm     24% 0.00in /  0mm 0.0 W/m2
22:46 69.1 °F /  20.6 °C 30.7 °F /  -0.7 °C 30.20in /  1022.6hPa NNW 2.9mph /  4.7km/h 3.0mph /  4.8km/h 24% 0.00in /  0mm 0.0 W/m2
22:51 68.7 °F /  20.4 °C 30.4 °F /  -0.9 °C 30.20in /  1022.6hPa Calm   1.0mph /  1.6km/h 24% 0.00in /  0mm 0.0 W/m2
22:56 68.7 °F /  20.4 °C 30.4 °F /  -0.9 °C 30.20in /  1022.6hPa WNW 0.9mph /  1.4km/h 1.0mph /  1.6km/h 24% 0.00in /  0mm 0.0 W/m2
23:02 68.7 °F /  20.4 °C 30.4 °F /  -0.9 °C 30.20in /  1022.6hPa Calm   1.0mph /  1.6km/h 24% 0.00in /  0mm 0.0 W/m2
23:07 68.5 °F /  20.3 °C 30.4 °F /  -0.9 °C 30.20in /  1022.6hPa Calm   1.0mph /  1.6km/h 24% 0.00in /  0mm 0.0 W/m2
23:12 68.5 °F /  20.3 °C 30.4 °F /  -0.9 °C 29.77in /  1008hPa Calm   1.0mph /  1.6km/h 24% 0.00in /  0mm 0.0 W/m2
23:17 68.5 °F /  20.3 °C 30.4 °F /  -0.9 °C 30.20in /  1022.6hPa Calm   2.0mph /  3.2km/h 24% 0.00in /  0mm 0.0 W/m2
23:27 68.7 °F /  20.4 °C 30.4 °F /  -0.9 °C 29.78in /  1008.4hPa West 0.9mph /  1.4km/h 3.0mph /  4.8km/h 24% 0.00in /  0mm 0.0 W/m2
23:43 69.1 °F /  20.6 °C 30.7 °F /  -0.7 °C 30.21in /  1022.9hPa Calm   1.0mph /  1.6km/h 24% 0.00in /  0mm 0.0 W/m2
23:48 69.1 °F /  20.6 °C 30.7 °F /  -0.7 °C 30.21in /  1022.9hPa Calm   1.0mph /  1.6km/h 24% 0.00in /  0mm 0.0 W/m2
23:58 69.1 °F /  20.6 °C 31.8 °F /  -0.1 °C 30.20in /  1022.6hPa Calm   1.0mph /  1.6km/h 25% 0.00in /  0mm 0.0 W/m2
Olympia, Windhoek, Namibia
Compliments of Weather Underground - 3 mb